createdAt,value
2018-01-20T00:00:13.896Z,0
2018-01-20T00:00:54.452Z,0
2018-01-20T00:01:35.022Z,0
2018-01-20T00:02:15.587Z,0
2018-01-20T00:02:56.140Z,0
2018-01-20T00:03:36.720Z,0
2018-01-20T00:04:17.278Z,0
2018-01-20T00:04:57.850Z,0
2018-01-20T00:05:38.414Z,0
2018-01-20T00:06:18.976Z,0
2018-01-20T00:06:59.540Z,0
2018-01-20T00:07:40.119Z,0
2018-01-20T00:08:20.673Z,0
2018-01-20T00:09:01.243Z,0
2018-01-20T00:09:41.807Z,0
2018-01-20T00:10:22.392Z,0
2018-01-20T00:11:03.062Z,0
2018-01-20T00:11:43.642Z,0
2018-01-20T00:12:24.215Z,0
2018-01-20T00:13:04.777Z,0
2018-01-20T00:13:45.360Z,0
2018-01-20T00:14:25.964Z,0
2018-01-20T00:15:06.531Z,0
2018-01-20T00:15:47.117Z,0
2018-01-20T00:16:27.684Z,0
2018-01-20T00:17:08.271Z,0
2018-01-20T00:17:48.853Z,0
2018-01-20T00:18:29.416Z,0
2018-01-20T00:19:10.003Z,0
2018-01-20T00:19:50.596Z,0
2018-01-20T00:20:31.154Z,0
2018-01-20T00:21:11.716Z,0
2018-01-20T00:21:52.278Z,0
2018-01-20T00:22:32.877Z,0
2018-01-20T00:23:13.442Z,0
2018-01-20T00:23:53.995Z,0
2018-01-20T00:24:34.560Z,0
2018-01-20T00:25:15.134Z,0
2018-01-20T00:25:55.703Z,0
2018-01-20T00:26:36.269Z,0
2018-01-20T00:27:16.822Z,0
2018-01-20T00:27:57.389Z,0
2018-01-20T00:28:37.961Z,0
2018-01-20T00:29:18.522Z,0
2018-01-20T00:29:59.088Z,0
2018-01-20T00:30:39.644Z,0
2018-01-20T00:31:20.219Z,0
2018-01-20T00:32:00.776Z,0
2018-01-20T00:32:41.331Z,0
2018-01-20T00:33:21.906Z,0
2018-01-20T00:34:02.458Z,0
2018-01-20T00:34:43.016Z,0
2018-01-20T00:35:23.580Z,0
2018-01-20T00:36:04.144Z,0
2018-01-20T00:36:44.702Z,0
2018-01-20T00:37:25.261Z,0
2018-01-20T00:38:05.837Z,0
2018-01-20T00:38:46.405Z,0
2018-01-20T00:39:26.968Z,0
2018-01-20T00:40:07.529Z,0
2018-01-20T00:40:48.099Z,0
2018-01-20T00:41:28.667Z,0
2018-01-20T00:42:09.227Z,0
2018-01-20T00:42:49.783Z,0
2018-01-20T00:43:30.340Z,0
2018-01-20T00:44:10.908Z,0
2018-01-20T00:44:51.470Z,0
2018-01-20T00:45:32.047Z,0
2018-01-20T00:46:12.626Z,0
2018-01-20T00:46:53.236Z,0
2018-01-20T00:47:33.783Z,0
2018-01-20T00:48:14.341Z,0
2018-01-20T00:48:54.904Z,0
2018-01-20T00:49:35.477Z,0
2018-01-20T00:50:16.030Z,0
2018-01-20T00:50:56.593Z,0
2018-01-20T00:51:37.148Z,0
2018-01-20T00:52:17.735Z,0
2018-01-20T00:52:58.284Z,0
2018-01-20T00:53:38.845Z,0
2018-01-20T00:54:19.410Z,0
2018-01-20T00:54:59.969Z,0
2018-01-20T00:55:40.530Z,0
2018-01-20T00:56:21.092Z,0
2018-01-20T00:57:01.657Z,0
2018-01-20T00:57:42.221Z,0
2018-01-20T00:58:22.787Z,0
2018-01-20T00:59:03.350Z,0
2018-01-20T00:59:43.921Z,0
2018-01-20T01:00:24.503Z,0
2018-01-20T01:01:05.065Z,0
2018-01-20T01:01:45.618Z,0
2018-01-20T01:02:26.181Z,0
2018-01-20T01:03:06.752Z,0
2018-01-20T01:03:47.314Z,0
2018-01-20T01:04:27.888Z,0
2018-01-20T01:05:08.441Z,0
2018-01-20T01:05:48.997Z,0
2018-01-20T01:06:29.556Z,0
2018-01-20T01:07:10.103Z,0
2018-01-20T01:07:50.654Z,0
2018-01-20T01:08:31.211Z,0
2018-01-20T01:09:11.777Z,0
2018-01-20T01:09:52.351Z,0
2018-01-20T01:10:32.895Z,0
2018-01-20T01:11:13.461Z,0
2018-01-20T01:11:54.019Z,0
2018-01-20T01:12:34.591Z,0
2018-01-20T01:13:15.158Z,0
2018-01-20T01:13:58.217Z,0
2018-01-20T01:14:38.777Z,0
2018-01-20T01:15:19.329Z,0
2018-01-20T01:15:59.880Z,0
2018-01-20T01:16:40.448Z,0
2018-01-20T01:17:21.002Z,0
2018-01-20T01:18:01.556Z,0
2018-01-20T01:18:42.105Z,0
2018-01-20T01:19:22.667Z,0
2018-01-20T01:20:03.225Z,0
2018-01-20T01:20:43.781Z,0
2018-01-20T01:21:24.333Z,0
2018-01-20T01:22:04.889Z,0
2018-01-20T01:22:45.445Z,0
2018-01-20T01:23:26.013Z,0
2018-01-20T01:24:06.568Z,0
2018-01-20T01:24:47.144Z,0
2018-01-20T01:25:27.747Z,0
2018-01-20T01:26:08.332Z,0
2018-01-20T01:26:48.882Z,0
2018-01-20T01:27:29.437Z,0
2018-01-20T01:28:09.993Z,0
2018-01-20T01:28:50.553Z,0
2018-01-20T01:29:31.111Z,0
2018-01-20T01:30:11.673Z,0
2018-01-20T01:30:52.245Z,0
2018-01-20T01:31:32.804Z,0
2018-01-20T01:32:13.381Z,0
2018-01-20T01:32:53.947Z,0
2018-01-20T01:33:34.514Z,0
2018-01-20T01:34:15.081Z,0
2018-01-20T01:34:55.649Z,0
2018-01-20T01:35:36.218Z,0
2018-01-20T01:36:16.781Z,0
2018-01-20T01:36:57.345Z,0
2018-01-20T01:37:37.933Z,0
2018-01-20T01:38:18.505Z,0
2018-01-20T01:38:59.064Z,0
2018-01-20T01:39:39.618Z,0
2018-01-20T01:40:20.176Z,0
2018-01-20T01:41:00.744Z,0
2018-01-20T01:41:41.325Z,0
2018-01-20T01:42:21.898Z,0
2018-01-20T01:43:02.482Z,0
2018-01-20T01:43:43.044Z,0
2018-01-20T01:44:23.607Z,0
2018-01-20T01:45:04.167Z,0
2018-01-20T01:45:44.719Z,0
2018-01-20T01:46:25.274Z,0
2018-01-20T01:47:05.830Z,0
2018-01-20T01:47:46.397Z,0
2018-01-20T01:48:26.951Z,0
2018-01-20T01:49:07.522Z,0
2018-01-20T01:49:48.101Z,0
2018-01-20T01:50:28.659Z,0
2018-01-20T01:51:09.219Z,0
2018-01-20T01:51:49.776Z,0
2018-01-20T01:52:30.334Z,0
2018-01-20T01:53:10.896Z,0
2018-01-20T01:53:51.471Z,0
2018-01-20T01:54:32.004Z,0
2018-01-20T01:55:12.570Z,0
2018-01-20T01:55:53.130Z,0
2018-01-20T01:56:33.708Z,0
2018-01-20T01:57:14.274Z,0
2018-01-20T01:57:54.831Z,0
2018-01-20T01:58:35.385Z,0
2018-01-20T01:59:15.941Z,0
2018-01-20T01:59:56.509Z,0
2018-01-20T02:00:37.054Z,0
2018-01-20T02:01:17.629Z,0
2018-01-20T02:01:58.207Z,0
2018-01-20T02:02:38.766Z,0
2018-01-20T02:03:19.323Z,0
2018-01-20T02:03:59.887Z,0
2018-01-20T02:04:40.458Z,0
2018-01-20T02:05:21.029Z,0
2018-01-20T02:06:01.578Z,0
2018-01-20T02:06:42.133Z,0
2018-01-20T02:07:22.695Z,0
2018-01-20T02:08:03.254Z,0
2018-01-20T02:08:43.831Z,0
2018-01-20T02:09:24.367Z,0
2018-01-20T02:10:04.936Z,0
2018-01-20T02:10:45.487Z,0
2018-01-20T02:11:26.044Z,0
2018-01-20T02:12:06.598Z,0
2018-01-20T02:12:47.154Z,0
2018-01-20T02:13:27.725Z,0
2018-01-20T02:14:08.298Z,0
2018-01-20T02:14:48.850Z,0
2018-01-20T02:15:29.408Z,0
2018-01-20T02:16:09.963Z,0
2018-01-20T02:16:50.572Z,0
2018-01-20T02:17:31.112Z,0
2018-01-20T02:18:11.697Z,0
2018-01-20T02:18:52.242Z,0
2018-01-20T02:19:32.848Z,0
2018-01-20T02:20:13.353Z,0
2018-01-20T02:20:53.907Z,0
2018-01-20T02:21:34.512Z,0
2018-01-20T02:22:15.062Z,0
2018-01-20T02:22:55.610Z,0
2018-01-20T02:23:36.161Z,0
2018-01-20T02:24:16.713Z,0
2018-01-20T02:24:57.266Z,0
2018-01-20T02:25:37.822Z,0
2018-01-20T02:26:18.380Z,0
2018-01-20T02:26:58.957Z,0
2018-01-20T02:27:39.512Z,0
2018-01-20T02:28:20.107Z,0
2018-01-20T02:29:00.666Z,0
2018-01-20T02:29:41.220Z,0
2018-01-20T02:30:21.773Z,0
2018-01-20T02:31:02.326Z,0
2018-01-20T02:31:42.890Z,0
2018-01-20T02:32:23.445Z,0
2018-01-20T02:33:04.003Z,0
2018-01-20T02:33:44.567Z,0
2018-01-20T02:34:25.133Z,0
2018-01-20T02:35:05.725Z,0
2018-01-20T02:35:46.282Z,0
2018-01-20T02:36:26.847Z,0
2018-01-20T02:37:07.398Z,0
2018-01-20T02:37:47.946Z,0
2018-01-20T02:38:28.521Z,0
2018-01-20T02:39:09.091Z,0
2018-01-20T02:39:49.663Z,0
2018-01-20T02:40:30.218Z,0
2018-01-20T02:41:10.780Z,0
2018-01-20T02:41:51.350Z,0
2018-01-20T02:42:31.903Z,0
2018-01-20T02:43:12.456Z,0
2018-01-20T02:43:53.021Z,0
2018-01-20T02:44:33.595Z,0
2018-01-20T02:45:14.169Z,0
2018-01-20T02:45:54.726Z,0
2018-01-20T02:46:35.293Z,0
2018-01-20T02:47:15.864Z,0
2018-01-20T02:47:56.426Z,0
2018-01-20T02:48:36.987Z,0
2018-01-20T02:49:17.596Z,0
2018-01-20T02:49:58.105Z,0
2018-01-20T02:50:38.664Z,0
2018-01-20T02:51:19.229Z,0
2018-01-20T02:51:59.786Z,0
2018-01-20T02:52:40.348Z,0
2018-01-20T02:53:20.904Z,0
2018-01-20T02:54:01.476Z,0
2018-01-20T02:54:42.027Z,0
2018-01-20T02:55:22.591Z,0
2018-01-20T02:56:03.189Z,0
2018-01-20T02:56:43.737Z,0
2018-01-20T02:57:24.296Z,0
2018-01-20T02:58:04.854Z,0
2018-01-20T02:58:45.408Z,0
2018-01-20T02:59:25.965Z,0
2018-01-20T03:00:06.531Z,0
2018-01-20T03:00:47.102Z,0
2018-01-20T03:01:27.670Z,0
2018-01-20T03:02:08.231Z,0
2018-01-20T03:02:48.792Z,0
2018-01-20T03:03:29.354Z,0
2018-01-20T03:04:09.927Z,0
2018-01-20T03:04:50.498Z,0
2018-01-20T03:05:31.066Z,0
2018-01-20T03:06:11.619Z,0
2018-01-20T03:06:52.231Z,0
2018-01-20T03:07:32.748Z,0
2018-01-20T03:08:13.306Z,0
2018-01-20T03:08:53.869Z,0
2018-01-20T03:09:34.442Z,0
2018-01-20T03:10:15.058Z,0
2018-01-20T03:10:55.614Z,0
2018-01-20T03:11:36.175Z,0
2018-01-20T03:12:16.735Z,0
2018-01-20T03:12:57.295Z,0
2018-01-20T03:13:37.844Z,0
2018-01-20T03:14:18.397Z,0
2018-01-20T03:14:58.947Z,0
2018-01-20T03:15:39.501Z,0
2018-01-20T03:16:20.056Z,0
2018-01-20T03:17:00.615Z,0
2018-01-20T03:17:41.172Z,0
2018-01-20T03:18:21.733Z,0
2018-01-20T03:19:02.305Z,0
2018-01-20T03:19:42.864Z,0
2018-01-20T03:20:23.426Z,0
2018-01-20T03:21:03.982Z,0
2018-01-20T03:21:44.531Z,0
2018-01-20T03:22:25.091Z,0
2018-01-20T03:23:05.639Z,0
2018-01-20T03:23:46.194Z,0
2018-01-20T03:24:26.743Z,0
2018-01-20T03:25:07.303Z,0
2018-01-20T03:25:47.869Z,0
2018-01-20T03:26:28.424Z,0
2018-01-20T03:27:08.980Z,0
2018-01-20T03:27:49.563Z,0
2018-01-20T03:28:30.143Z,0
2018-01-20T03:29:10.702Z,0
2018-01-20T03:29:51.271Z,0
2018-01-20T03:30:31.824Z,0
2018-01-20T03:31:12.387Z,0
2018-01-20T03:31:52.959Z,0
2018-01-20T03:32:33.523Z,0
2018-01-20T03:33:14.088Z,0
2018-01-20T03:33:54.650Z,0
2018-01-20T03:34:35.201Z,0
2018-01-20T03:35:15.773Z,0
2018-01-20T03:35:56.326Z,0
2018-01-20T03:36:36.894Z,0
2018-01-20T03:37:17.435Z,0
2018-01-20T03:37:57.992Z,0
2018-01-20T03:38:38.540Z,0
2018-01-20T03:39:19.092Z,0
2018-01-20T03:39:59.672Z,0
2018-01-20T03:40:40.234Z,0
2018-01-20T03:41:20.802Z,0
2018-01-20T03:42:01.355Z,0
2018-01-20T03:42:41.909Z,0
2018-01-20T03:43:22.474Z,0
2018-01-20T03:44:03.033Z,0
2018-01-20T03:44:43.604Z,0
2018-01-20T03:45:24.165Z,0
2018-01-20T03:46:04.721Z,0
2018-01-20T03:46:45.295Z,0
2018-01-20T03:47:25.837Z,0
2018-01-20T03:48:06.395Z,0
2018-01-20T03:48:46.946Z,0
2018-01-20T03:49:27.494Z,0
2018-01-20T03:50:08.063Z,0
2018-01-20T03:50:48.617Z,0
2018-01-20T03:51:29.178Z,0
2018-01-20T03:52:09.806Z,0
2018-01-20T03:52:50.352Z,0
2018-01-20T03:53:30.911Z,0
2018-01-20T03:54:11.473Z,0
2018-01-20T03:54:52.038Z,0
2018-01-20T03:55:32.585Z,0
2018-01-20T03:56:13.134Z,0
2018-01-20T03:56:53.705Z,0
2018-01-20T03:57:34.266Z,0
2018-01-20T03:58:14.822Z,0
2018-01-20T03:58:55.387Z,0
2018-01-20T03:59:35.942Z,0
2018-01-20T04:00:16.495Z,0
2018-01-20T04:00:57.046Z,0
2018-01-20T04:01:37.611Z,0
2018-01-20T04:02:18.173Z,0
2018-01-20T04:02:58.739Z,0
2018-01-20T04:03:39.292Z,0
2018-01-20T04:04:19.866Z,0
2018-01-20T04:05:00.416Z,0
2018-01-20T04:05:40.962Z,0
2018-01-20T04:06:21.517Z,0
2018-01-20T04:07:02.071Z,0
2018-01-20T04:07:42.641Z,0
2018-01-20T04:08:23.197Z,0
2018-01-20T04:09:03.765Z,0
2018-01-20T04:09:44.320Z,0
2018-01-20T04:10:24.888Z,0
2018-01-20T04:11:05.454Z,0
2018-01-20T04:11:46.031Z,0
2018-01-20T04:12:26.576Z,0
2018-01-20T04:13:07.138Z,0
2018-01-20T04:13:47.719Z,0
2018-01-20T04:14:28.275Z,0
2018-01-20T04:15:08.835Z,0
2018-01-20T04:15:49.398Z,0
2018-01-20T04:16:29.969Z,0
2018-01-20T04:17:10.535Z,0
2018-01-20T04:17:51.098Z,0
2018-01-20T04:18:31.659Z,0
2018-01-20T04:19:12.215Z,0
2018-01-20T04:19:52.798Z,0
2018-01-20T04:20:33.367Z,0
2018-01-20T04:21:13.922Z,0
2018-01-20T04:21:54.481Z,0
2018-01-20T04:22:35.042Z,0
2018-01-20T04:23:15.602Z,0
2018-01-20T04:23:56.159Z,0
2018-01-20T04:24:36.731Z,0
2018-01-20T04:25:17.291Z,0
2018-01-20T04:25:57.874Z,0
2018-01-20T04:26:38.425Z,0
2018-01-20T04:27:18.975Z,0
2018-01-20T04:27:59.529Z,0
2018-01-20T04:28:40.123Z,0
2018-01-20T04:29:20.690Z,0
2018-01-20T04:30:01.256Z,0
2018-01-20T04:30:41.816Z,0
2018-01-20T04:31:22.374Z,0
2018-01-20T04:32:02.928Z,0
2018-01-20T04:32:43.500Z,0
2018-01-20T04:33:24.073Z,0
2018-01-20T04:34:04.641Z,0
2018-01-20T04:34:45.230Z,0
2018-01-20T04:35:25.788Z,0
2018-01-20T04:36:06.360Z,0
2018-01-20T04:36:46.914Z,0
2018-01-20T04:37:27.469Z,0
2018-01-20T04:38:08.023Z,0
2018-01-20T04:38:48.580Z,0
2018-01-20T04:39:29.139Z,0
2018-01-20T04:40:09.726Z,0
2018-01-20T04:40:50.331Z,0
2018-01-20T04:41:30.885Z,0
2018-01-20T04:42:11.447Z,0
2018-01-20T04:42:51.993Z,0
2018-01-20T04:43:32.552Z,0
2018-01-20T04:44:13.120Z,0
2018-01-20T04:44:53.704Z,0
2018-01-20T04:45:34.279Z,0
2018-01-20T04:46:14.846Z,0
2018-01-20T04:46:55.436Z,0
2018-01-20T04:47:36.022Z,0
2018-01-20T04:48:16.584Z,0
2018-01-20T04:48:57.146Z,0
2018-01-20T04:49:37.700Z,0
2018-01-20T04:50:18.276Z,0
2018-01-20T04:50:58.831Z,0
2018-01-20T04:51:39.536Z,0
2018-01-20T04:52:20.100Z,0
2018-01-20T04:53:00.648Z,0
2018-01-20T04:53:41.218Z,0
2018-01-20T04:54:21.787Z,0
2018-01-20T04:55:02.344Z,0
2018-01-20T04:55:42.910Z,0
2018-01-20T04:56:23.457Z,0
2018-01-20T04:57:04.015Z,0
2018-01-20T04:57:44.573Z,0
2018-01-20T04:58:25.141Z,0
2018-01-20T04:59:05.743Z,0
2018-01-20T04:59:46.305Z,0
2018-01-20T05:00:27.052Z,0
2018-01-20T05:01:07.605Z,0
2018-01-20T05:01:48.165Z,0
2018-01-20T05:02:28.716Z,0
2018-01-20T05:03:09.271Z,0
2018-01-20T05:03:49.838Z,0
2018-01-20T05:04:30.397Z,0
2018-01-20T05:05:10.968Z,0
2018-01-20T05:05:51.516Z,0
2018-01-20T05:06:32.084Z,0
2018-01-20T05:07:12.639Z,0
2018-01-20T05:07:53.189Z,0
2018-01-20T05:08:33.760Z,0
2018-01-20T05:09:14.317Z,0
2018-01-20T05:09:54.875Z,0
2018-01-20T05:10:35.447Z,0
2018-01-20T05:11:16.008Z,0
2018-01-20T05:11:56.646Z,0
2018-01-20T05:12:37.323Z,0
2018-01-20T05:13:17.937Z,0
2018-01-20T05:13:58.608Z,0
2018-01-20T05:14:39.315Z,0
2018-01-20T05:15:19.970Z,0
2018-01-20T05:16:00.530Z,0
2018-01-20T05:16:41.126Z,0
2018-01-20T05:17:21.795Z,0
2018-01-20T05:18:02.432Z,0
2018-01-20T05:18:43.117Z,0
2018-01-20T05:19:23.818Z,0
2018-01-20T05:20:04.436Z,0
2018-01-20T05:20:45.035Z,0
2018-01-20T05:21:25.690Z,0
2018-01-20T05:22:06.387Z,0
2018-01-20T05:22:47.074Z,0
2018-01-20T05:23:27.734Z,0
2018-01-20T05:24:08.389Z,0
2018-01-20T05:24:48.934Z,0
2018-01-20T05:25:29.489Z,0
2018-01-20T05:26:10.055Z,0
2018-01-20T05:26:50.639Z,0
2018-01-20T05:27:31.214Z,0
2018-01-20T05:28:11.777Z,0
2018-01-20T05:28:52.355Z,0
2018-01-20T05:29:32.919Z,0
2018-01-20T05:30:13.641Z,0
2018-01-20T05:30:54.215Z,0
2018-01-20T05:31:34.777Z,0
2018-01-20T05:32:15.351Z,0
2018-01-20T05:32:55.930Z,0
2018-01-20T05:33:36.492Z,0
2018-01-20T05:34:17.052Z,0
2018-01-20T05:34:57.618Z,0
2018-01-20T05:35:38.174Z,0
2018-01-20T05:36:18.733Z,0
2018-01-20T05:36:59.303Z,0
2018-01-20T05:37:39.870Z,0
2018-01-20T05:38:20.450Z,0
2018-01-20T05:39:01.008Z,0
2018-01-20T05:39:41.568Z,0
2018-01-20T05:40:22.129Z,0
2018-01-20T05:41:02.723Z,0
2018-01-20T05:41:43.279Z,0
2018-01-20T05:42:23.843Z,0
2018-01-20T05:43:04.404Z,0
2018-01-20T05:43:44.994Z,0
2018-01-20T05:44:25.583Z,0
2018-01-20T05:45:06.136Z,0
2018-01-20T05:45:46.695Z,0
2018-01-20T05:46:27.256Z,0
2018-01-20T05:47:07.830Z,0
2018-01-20T05:47:48.385Z,0
2018-01-20T05:48:28.944Z,0
2018-01-20T05:49:09.513Z,0
2018-01-20T05:49:50.074Z,0
2018-01-20T05:50:30.638Z,0
2018-01-20T05:51:11.197Z,0
2018-01-20T05:51:51.776Z,0
2018-01-20T05:52:32.331Z,0
2018-01-20T05:53:12.903Z,0
2018-01-20T05:53:53.470Z,0
2018-01-20T05:54:34.027Z,0
2018-01-20T05:55:14.594Z,0
2018-01-20T05:55:55.162Z,0
2018-01-20T05:56:35.720Z,0
2018-01-20T05:57:16.272Z,0
2018-01-20T05:57:56.832Z,0
2018-01-20T05:58:37.391Z,0
2018-01-20T05:59:18.004Z,0
2018-01-20T05:59:58.553Z,0
2018-01-20T06:00:39.121Z,0
2018-01-20T06:01:19.685Z,0
2018-01-20T06:02:00.262Z,0
2018-01-20T06:02:40.823Z,0
2018-01-20T06:03:21.376Z,0
2018-01-20T06:04:01.928Z,0
2018-01-20T06:04:42.536Z,0
2018-01-20T06:05:23.046Z,0
2018-01-20T06:06:03.623Z,0
2018-01-20T06:06:44.191Z,0
2018-01-20T06:07:24.762Z,0
2018-01-20T06:08:05.333Z,0
2018-01-20T06:08:45.883Z,0
2018-01-20T06:09:26.480Z,0
2018-01-20T06:10:07.009Z,0
2018-01-20T06:10:47.564Z,0
2018-01-20T06:11:28.116Z,0
2018-01-20T06:12:08.666Z,0
2018-01-20T06:12:49.222Z,0
2018-01-20T06:13:29.798Z,0
2018-01-20T06:14:10.370Z,0
2018-01-20T06:14:50.943Z,0
2018-01-20T06:15:31.490Z,0
2018-01-20T06:16:12.040Z,0
2018-01-20T06:16:52.614Z,0
2018-01-20T06:17:33.165Z,0
2018-01-20T06:18:13.734Z,0
2018-01-20T06:18:54.295Z,0
2018-01-20T06:19:34.858Z,0
2018-01-20T06:20:15.420Z,0
2018-01-20T06:20:55.975Z,0
2018-01-20T06:21:36.527Z,0
2018-01-20T06:22:17.109Z,0
2018-01-20T06:22:57.671Z,0
2018-01-20T06:23:38.240Z,0
2018-01-20T06:24:18.814Z,0
2018-01-20T06:24:59.380Z,0
2018-01-20T06:25:39.936Z,0
2018-01-20T06:26:20.525Z,0
2018-01-20T06:27:01.103Z,0
2018-01-20T06:27:41.649Z,0
2018-01-20T06:28:22.222Z,0
2018-01-20T06:29:02.792Z,0
2018-01-20T06:29:43.343Z,0
2018-01-20T06:30:23.912Z,0
2018-01-20T06:31:04.473Z,0
2018-01-20T06:31:45.044Z,0
2018-01-20T06:32:25.605Z,0
2018-01-20T06:33:06.166Z,0
2018-01-20T06:33:46.727Z,0
2018-01-20T06:34:27.296Z,0
2018-01-20T06:35:07.873Z,0
2018-01-20T06:35:48.433Z,0
2018-01-20T06:36:28.996Z,0
2018-01-20T06:37:09.557Z,0
2018-01-20T06:37:50.130Z,0
2018-01-20T06:38:30.691Z,0
2018-01-20T06:39:11.268Z,0
2018-01-20T06:39:51.839Z,0
2018-01-20T06:40:32.406Z,0
2018-01-20T06:41:12.967Z,0
2018-01-20T06:41:53.524Z,0
2018-01-20T06:42:34.465Z,0
2018-01-20T06:43:15.201Z,0
2018-01-20T06:43:56.606Z,0
2018-01-20T06:44:37.311Z,0
2018-01-20T06:45:17.922Z,0
2018-01-20T06:45:58.593Z,0
2018-01-20T06:46:39.358Z,0
2018-01-20T06:47:20.093Z,0
2018-01-20T06:48:00.627Z,0
2018-01-20T06:48:41.182Z,0
2018-01-20T06:49:21.986Z,0
2018-01-20T06:50:03.221Z,0
2018-01-20T06:50:43.908Z,0
2018-01-20T06:51:24.492Z,0
2018-01-20T06:52:05.089Z,0
2018-01-20T06:52:45.646Z,0
2018-01-20T06:53:26.205Z,0
2018-01-20T06:54:06.772Z,0
2018-01-20T06:54:47.324Z,0
2018-01-20T06:55:27.883Z,0
2018-01-20T06:56:08.555Z,0
2018-01-20T06:56:49.847Z,0
2018-01-20T06:57:31.709Z,0
2018-01-20T06:58:15.101Z,0
2018-01-20T06:58:58.077Z,0
2018-01-20T06:59:38.645Z,0
2018-01-20T07:00:19.207Z,0
2018-01-20T07:00:59.769Z,0
2018-01-20T07:01:40.346Z,0
2018-01-20T07:02:20.898Z,0
2018-01-20T07:03:01.968Z,0
2018-01-20T07:03:42.626Z,0
2018-01-20T07:04:23.258Z,0
2018-01-20T07:05:03.825Z,0
2018-01-20T07:05:44.384Z,0
2018-01-20T07:06:25.295Z,0
2018-01-20T07:07:06.082Z,0
2018-01-20T07:07:46.832Z,0
2018-01-20T07:08:27.906Z,0
2018-01-20T07:09:08.760Z,0
2018-01-20T07:09:49.329Z,0
2018-01-20T07:10:29.884Z,0
2018-01-20T07:11:10.498Z,0
2018-01-20T07:11:51.320Z,0
2018-01-20T07:12:32.297Z,0
2018-01-20T07:13:12.862Z,0
2018-01-20T07:13:53.425Z,0
2018-01-20T07:14:33.990Z,0
2018-01-20T07:15:14.777Z,0
2018-01-20T07:15:55.389Z,0
2018-01-20T07:16:36.120Z,0
2018-01-20T07:17:17.438Z,0
2018-01-20T07:17:58.183Z,0
2018-01-20T07:18:38.967Z,0
2018-01-20T07:19:20.014Z,0
2018-01-20T07:20:01.015Z,0
2018-01-20T07:20:41.684Z,0
2018-01-20T07:21:22.491Z,0
2018-01-20T07:22:03.331Z,0
2018-01-20T07:22:44.230Z,0
2018-01-20T07:23:24.847Z,0
2018-01-20T07:24:05.679Z,0
2018-01-20T07:24:46.581Z,0
2018-01-20T07:25:27.511Z,0
2018-01-20T07:26:08.354Z,0
2018-01-20T07:26:49.084Z,0
2018-01-20T07:27:29.951Z,0
2018-01-20T07:28:12.113Z,0
2018-01-20T07:28:52.730Z,0
2018-01-20T07:29:33.297Z,0
2018-01-20T07:30:14.619Z,0
2018-01-20T07:30:55.182Z,0
2018-01-20T07:31:35.744Z,5
2018-01-20T07:32:16.301Z,5
2018-01-20T07:32:56.861Z,5
2018-01-20T07:33:37.421Z,5
2018-01-20T07:34:17.979Z,5
2018-01-20T07:34:58.546Z,5
2018-01-20T07:35:39.113Z,5
2018-01-20T07:36:19.683Z,5
2018-01-20T07:37:00.243Z,5
2018-01-20T07:37:40.804Z,5
2018-01-20T07:38:21.373Z,5
2018-01-20T07:39:01.925Z,5
2018-01-20T07:39:42.478Z,5
2018-01-20T07:40:23.046Z,5
2018-01-20T07:41:03.595Z,5
2018-01-20T07:41:44.171Z,5
2018-01-20T07:42:24.768Z,10
2018-01-20T07:43:05.325Z,10
2018-01-20T07:43:45.888Z,10
2018-01-20T07:44:26.458Z,10
2018-01-20T07:45:07.017Z,10
2018-01-20T07:45:47.585Z,10
2018-01-20T07:46:28.144Z,10
2018-01-20T07:47:08.711Z,10
2018-01-20T07:47:49.263Z,10
2018-01-20T07:48:29.875Z,10
2018-01-20T07:49:10.441Z,5
2018-01-20T07:49:51.431Z,5
2018-01-20T07:50:32.024Z,5
2018-01-20T07:51:12.618Z,5
2018-01-20T07:51:53.180Z,5
2018-01-20T07:52:33.745Z,5
2018-01-20T07:53:14.454Z,5
2018-01-20T07:53:55.018Z,5
2018-01-20T07:54:35.574Z,5
2018-01-20T07:55:16.168Z,5
2018-01-20T07:55:56.720Z,5
2018-01-20T07:56:37.292Z,5
2018-01-20T07:57:17.863Z,5
2018-01-20T07:57:58.412Z,5
2018-01-20T07:58:39.031Z,5
2018-01-20T07:59:19.671Z,5
2018-01-20T08:00:00.256Z,5
2018-01-20T08:00:40.978Z,5
2018-01-20T08:01:21.541Z,5
2018-01-20T08:02:02.103Z,10
2018-01-20T08:02:42.662Z,10
2018-01-20T08:03:23.396Z,10
2018-01-20T08:04:03.953Z,10
2018-01-20T08:04:44.740Z,10
2018-01-20T08:05:25.326Z,10
2018-01-20T08:06:05.906Z,10
2018-01-20T08:06:46.466Z,10
2018-01-20T08:07:27.027Z,10
2018-01-20T08:08:07.588Z,10
2018-01-20T08:08:48.169Z,10
2018-01-20T08:09:28.731Z,10
2018-01-20T08:10:09.329Z,10
2018-01-20T08:10:49.908Z,10
2018-01-20T08:11:30.471Z,10
2018-01-20T08:12:11.039Z,10
2018-01-20T08:12:51.743Z,10
2018-01-20T08:13:32.302Z,10
2018-01-20T08:14:12.862Z,10
2018-01-20T08:14:53.420Z,10
2018-01-20T08:15:33.981Z,10
2018-01-20T08:16:16.162Z,10
2018-01-20T08:16:57.922Z,10
2018-01-20T08:17:38.528Z,10
2018-01-20T08:18:19.167Z,10
2018-01-20T08:19:00.031Z,10
2018-01-20T08:19:40.639Z,10
2018-01-20T08:20:21.196Z,10
2018-01-20T08:21:01.762Z,10
2018-01-20T08:21:42.320Z,10
2018-01-20T08:22:22.882Z,10
2018-01-20T08:23:03.480Z,10
2018-01-20T08:23:44.062Z,15
2018-01-20T08:24:24.630Z,15
2018-01-20T08:25:05.203Z,15
2018-01-20T08:25:45.779Z,15
2018-01-20T08:26:26.362Z,15
2018-01-20T08:27:06.924Z,15
2018-01-20T08:27:47.500Z,15
2018-01-20T08:28:28.061Z,15
2018-01-20T08:29:08.635Z,15
2018-01-20T08:29:49.185Z,15
2018-01-20T08:30:29.779Z,15
2018-01-20T08:31:10.326Z,15
2018-01-20T08:31:50.950Z,15
2018-01-20T08:32:31.804Z,15
2018-01-20T08:33:12.924Z,15
2018-01-20T08:33:52.958Z,15
2018-01-20T08:34:33.527Z,15
2018-01-20T08:35:14.133Z,15
2018-01-20T08:35:54.712Z,15
2018-01-20T08:36:35.278Z,15
2018-01-20T08:37:15.870Z,15
2018-01-20T08:37:56.454Z,15
2018-01-20T08:38:37.137Z,15
2018-01-20T08:39:17.720Z,15
2018-01-20T08:39:58.343Z,15
2018-01-20T08:40:38.934Z,15
2018-01-20T08:41:19.487Z,20
2018-01-20T08:42:00.060Z,20
2018-01-20T08:42:40.643Z,20
2018-01-20T08:43:23.508Z,20
2018-01-20T08:44:04.065Z,20
2018-01-20T08:44:44.635Z,20
2018-01-20T08:45:25.211Z,20
2018-01-20T08:46:05.849Z,20
2018-01-20T08:46:46.402Z,20
2018-01-20T08:47:27.006Z,20
2018-01-20T08:48:07.573Z,20
2018-01-20T08:48:48.291Z,20
2018-01-20T08:49:29.898Z,20
2018-01-20T08:50:10.496Z,25
2018-01-20T08:50:51.130Z,25
2018-01-20T08:51:31.954Z,25
2018-01-20T08:52:12.583Z,25
2018-01-20T08:52:53.144Z,25
2018-01-20T08:53:33.742Z,25
2018-01-20T08:54:14.304Z,25
2018-01-20T08:54:54.855Z,25
2018-01-20T08:55:35.417Z,25
2018-01-20T08:56:15.986Z,25
2018-01-20T08:56:56.539Z,25
2018-01-20T08:57:37.099Z,30
2018-01-20T08:58:17.664Z,30
2018-01-20T08:58:58.241Z,30
2018-01-20T08:59:38.786Z,30
2018-01-20T09:00:19.361Z,30
2018-01-20T09:00:59.941Z,30
2018-01-20T09:01:40.568Z,30
2018-01-20T09:02:21.128Z,30
2018-01-20T09:03:01.747Z,30
2018-01-20T09:03:42.331Z,30
2018-01-20T09:04:23.651Z,25
2018-01-20T09:05:04.714Z,25
2018-01-20T09:05:45.696Z,25
2018-01-20T09:06:26.465Z,30
2018-01-20T09:07:07.720Z,30
2018-01-20T09:07:48.279Z,35
2018-01-20T09:08:28.845Z,35
2018-01-20T09:09:09.829Z,35
2018-01-20T09:09:50.408Z,35
2018-01-20T09:10:30.991Z,35
2018-01-20T09:11:11.555Z,35
2018-01-20T09:11:53.042Z,35
2018-01-20T09:12:34.031Z,35
2018-01-20T09:13:15.180Z,30
2018-01-20T09:13:56.418Z,30
2018-01-20T09:14:37.162Z,25
2018-01-20T09:15:17.808Z,25
2018-01-20T09:15:58.392Z,25
2018-01-20T09:16:39.033Z,25
2018-01-20T09:17:19.592Z,30
2018-01-20T09:18:00.507Z,30
2018-01-20T09:18:41.281Z,30
2018-01-20T09:19:21.837Z,30
2018-01-20T09:20:02.401Z,30
2018-01-20T09:20:42.962Z,25
2018-01-20T09:21:23.751Z,25
2018-01-20T09:22:04.811Z,25
2018-01-20T09:22:45.373Z,25
2018-01-20T09:23:26.586Z,25
2018-01-20T09:24:07.520Z,20
2018-01-20T09:24:48.409Z,20
2018-01-20T09:25:29.419Z,15
2018-01-20T09:26:10.247Z,15
2018-01-20T09:26:51.318Z,15
2018-01-20T09:27:32.233Z,15
2018-01-20T09:28:12.896Z,15
2018-01-20T09:28:53.565Z,15
2018-01-20T09:29:34.397Z,15
2018-01-20T09:30:15.182Z,15
2018-01-20T09:30:55.862Z,15
2018-01-20T09:31:37.041Z,15
2018-01-20T09:32:18.089Z,15
2018-01-20T09:32:59.356Z,15
2018-01-20T09:33:40.672Z,15
2018-01-20T09:34:21.834Z,15
2018-01-20T09:35:02.551Z,15
2018-01-20T09:35:43.109Z,15
2018-01-20T09:36:23.671Z,15
2018-01-20T09:37:04.249Z,15
2018-01-20T09:37:44.841Z,20
2018-01-20T09:38:25.462Z,20
2018-01-20T09:39:06.040Z,20
2018-01-20T09:39:46.606Z,20
2018-01-20T09:40:27.166Z,20
2018-01-20T09:41:08.094Z,20
2018-01-20T09:41:49.899Z,20
2018-01-20T09:42:30.602Z,15
2018-01-20T09:43:11.262Z,15
2018-01-20T09:43:52.381Z,15
2018-01-20T09:44:33.291Z,15
2018-01-20T09:45:14.305Z,20
2018-01-20T09:45:54.888Z,20
2018-01-20T09:46:35.787Z,20
2018-01-20T09:47:16.810Z,25
2018-01-20T09:47:57.790Z,30
2018-01-20T09:48:38.302Z,30
2018-01-20T09:49:19.291Z,35
2018-01-20T09:50:01.105Z,40
2018-01-20T09:50:41.983Z,40
2018-01-20T09:51:22.708Z,45
2018-01-20T09:52:03.447Z,45
2018-01-20T09:52:44.238Z,40
2018-01-20T09:53:24.793Z,40
2018-01-20T09:54:05.352Z,40
2018-01-20T09:54:49.224Z,40
2018-01-20T09:55:29.779Z,40
2018-01-20T09:56:10.339Z,40